Time;durP1;ratioP1;P1;durP2;ratioP2;P2;SDS_P1;SDS_P2;PMS_P1;PMS_P2;Temp;Humidity;BMP_temperature;BMP_pressure;BME280_temperature;BME280_humidity;BME280_pressure;Samples;Min_cycle;Max_cycle;Signal;HPM_P1;HPM_P2
2022/09/11 00:00:58;;;;;;;102.53;46.67;;;;;;;12.13;100.00;101508.69;2080847;28;30427;-75
2022/09/11 00:01:59;;;;;;;100.80;45.47;;;;;;;12.11;100.00;101502.44;2079879;28;32184;-76
2022/09/11 00:03:02;;;;;;;107.47;46.78;;;;;;;12.13;100.00;101505.09;2079955;28;35791;-76
2022/09/11 00:04:05;;;;;;;115.05;49.13;;;;;;;12.16;100.00;101510.44;2080493;28;32742;-76
2022/09/11 00:05:07;;;;;;;122.90;50.88;;;;;;;12.13;100.00;101511.38;2080884;28;30302;-75
2022/09/11 00:06:12;;;;;;;122.70;51.40;;;;;;;12.14;100.00;101510.44;2080267;28;31678;-76
2022/09/11 00:07:14;;;;;;;114.68;49.08;;;;;;;12.13;100.00;101506.00;2080230;28;32048;-75
2022/09/11 00:08:20;;;;;;;123.53;50.35;;;;;;;12.12;100.00;101512.28;2080863;28;20819;-75
2022/09/11 00:09:21;;;;;;;114.70;48.15;;;;;;;12.11;100.00;101509.63;2082388;28;32984;-75
2022/09/11 00:10:23;;;;;;;99.22;43.85;;;;;;;12.12;100.00;101506.03;2079493;28;32263;-76
2022/09/11 00:11:29;;;;;;;109.25;46.90;;;;;;;12.08;100.00;101509.69;2072189;28;35389;-75
2022/09/11 00:12:32;;;;;;;121.35;50.35;;;;;;;12.08;100.00;101515.97;2072220;28;36673;-75
2022/09/11 00:13:36;;;;;;;119.95;48.95;;;;;;;12.19;100.00;101516.63;2072212;28;31912;-75
2022/09/11 00:14:40;;;;;;;153.77;55.00;;;;;;;12.15;100.00;101511.31;2072340;28;32323;-75
2022/09/11 00:15:47;;;;;;;153.07;58.13;;;;;;;12.14;100.00;101515.81;2072034;28;37680;-76
2022/09/11 00:16:51;;;;;;;126.40;51.72;;;;;;;12.11;100.00;101513.19;2072883;28;20148;-75
2022/09/11 00:17:55;;;;;;;128.00;51.88;;;;;;;12.12;100.00;101514.09;2072333;28;31255;-75
2022/09/11 00:19:01;;;;;;;134.73;53.28;;;;;;;12.13;100.00;101511.38;2072319;28;30153;-75
2022/09/11 00:20:04;;;;;;;126.38;50.28;;;;;;;12.12;100.00;101514.97;2072362;28;29123;-75
2022/09/11 00:21:07;;;;;;;120.03;51.05;;;;;;;12.15;100.00;101514.91;2071241;28;38764;-75
2022/09/11 00:22:08;;;;;;;159.15;52.00;;;;;;;12.11;100.00;101515.88;2072587;28;27862;-75
2022/09/11 00:23:10;;;;;;;129.15;46.30;;;;;;;12.12;100.00;101520.34;2078996;28;39941;-75
2022/09/11 00:24:12;;;;;;;116.28;47.50;;;;;;;12.08;100.00;101515.97;2072581;28;29860;-75
2022/09/11 00:25:13;;;;;;;105.38;43.80;;;;;;;12.08;100.00;101517.72;2072666;28;29690;-75
2022/09/11 00:26:17;;;;;;;91.47;42.88;;;;;;;12.03;100.00;101513.34;2071554;28;33990;-75
2022/09/11 00:27:19;;;;;;;80.10;41.55;;;;;;;11.97;100.00;101520.63;2071239;28;33936;-75
2022/09/11 00:28:24;;;;;;;118.13;49.05;;;;;;;11.92;100.00;101519.88;2072305;28;26108;-75
2022/09/11 00:29:26;;;;;;;100.80;44.55;;;;;;;11.93;100.00;101518.94;2079407;28;33206;-75
2022/09/11 00:30:29;;;;;;;102.03;45.58;;;;;;;11.91;100.00;101520.75;2079621;28;30129;-75
2022/09/11 00:31:31;;;;;;;101.13;44.55;;;;;;;11.93;100.00;101527.84;2079809;28;25567;-75
2022/09/11 00:32:35;;;;;;;118.82;48.90;;;;;;;11.94;100.00;101526.06;2080765;28;27716;-75
2022/09/11 00:33:37;;;;;;;125.40;48.45;;;;;;;11.93;100.00;101521.59;2080473;28;25762;-75
2022/09/11 00:34:40;;;;;;;122.68;50.15;;;;;;;11.98;100.00;101534.03;2080069;28;20050;-75
2022/09/11 00:35:43;;;;;;;154.52;55.05;;;;;;;12.03;100.00;101525.91;2071976;28;23062;-75
2022/09/11 00:36:47;;;;;;;186.23;56.83;;;;;;;12.05;100.00;101524.06;2072179;28;20043;-76
2022/09/11 00:37:49;;;;;;;140.18;52.50;;;;;;;12.11;100.00;101523.06;2080080;28;22432;-75
2022/09/11 00:38:51;;;;;;;143.43;49.40;;;;;;;12.08;100.00;101526.69;2080580;28;27999;-75
2022/09/11 00:39:53;;;;;;;134.20;53.28;;;;;;;12.09;100.00;101523.06;2080808;28;20077;-75
2022/09/11 00:40:58;;;;;;;141.48;49.92;;;;;;;12.12;100.00;101520.34;2079601;28;36570;-75
2022/09/11 00:42:01;;;;;;;140.50;50.88;;;;;;;12.11;100.00;101518.56;2078022;28;20111;-75
2022/09/11 00:43:09;;;;;;;130.23;43.38;;;;;;;12.12;100.00;101525.72;2076496;28;21297;-74
2022/09/11 00:44:10;;;;;;;135.00;51.63;;;;;;;12.19;100.00;101526.47;2077547;28;29198;-75
2022/09/11 00:45:25;;;;;;;154.48;51.38;;;;;;;12.19;100.00;101521.97;2077419;28;20080;-74
2022/09/11 00:46:39;;;;;;;132.60;48.38;;;;;;;12.19;100.00;101524.66;2067141;28;21719;-75
2022/09/11 00:47:44;;;;;;;121.35;43.92;;;;;;;12.19;100.00;101521.97;2072197;28;20046;-75
2022/09/11 00:48:49;;;;;;;140.73;47.17;;;;;;;12.18;100.00;101530.94;2080518;28;27045;-75
2022/09/11 00:49:55;;;;;;;114.10;43.42;;;;;;;12.15;100.00;101525.66;2079876;28;32883;-75
2022/09/11 00:51:02;;;;;;;121.03;45.83;;;;;;;12.13;100.00;101529.25;2064504;28;35982;-75
2022/09/11 00:52:25;;;;;;;120.68;47.20;;;;;;;12.14;100.00;101531.06;2073001;28;28749;-75
2022/09/11 00:53:29;;;;;;;102.70;42.80;;;;;;;12.11;100.00;101523.94;2080059;28;27114;-75
2022/09/11 00:54:38;;;;;;;131.77;45.65;;;;;;;12.13;100.00;101527.50;2080314;28;23908;-75
2022/09/11 00:55:44;;;;;;;103.20;44.20;;;;;;;12.13;100.00;101527.50;2080215;28;20894;-75
2022/09/11 00:56:47;;;;;;;95.47;44.97;;;;;;;12.11;100.00;101529.28;2073411;28;25888;-74
2022/09/11 00:58:00;;;;;;;129.13;45.38;;;;;;;12.14;100.00;101531.06;2080350;28;20034;-74
2022/09/11 00:59:03;;;;;;;103.47;40.97;;;;;;;12.11;100.00;101523.06;2080717;28;25788;-75
2022/09/11 01:00:07;;;;;;;104.25;45.00;;;;;;;12.11;100.00;101529.28;2079909;28;30346;-75
2022/09/11 01:01:09;;;;;;;90.50;44.45;;;;;;;12.11;100.00;101529.28;2079969;28;28335;-74
2022/09/11 01:02:15;;;;;;;105.13;43.88;;;;;;;12.09;100.00;101527.56;2080937;28;20217;-74
2022/09/11 01:03:18;;;;;;;90.57;43.30;;;;;;;12.06;100.00;101520.47;2080557;28;20038;-74
2022/09/11 01:04:21;;;;;;;100.70;42.70;;;;;;;12.06;100.00;101520.47;2080274;28;20485;-75
2022/09/11 01:05:27;;;;;;;117.50;37.10;;;;;;;12.03;100.00;101524.09;2079691;28;22907;-75
2022/09/11 01:06:31;;;;;;;113.65;45.00;;;;;;;12.06;100.00;101520.47;2072352;28;29600;-75
2022/09/11 01:07:35;;;;;;;106.40;40.20;;;;;;;12.02;100.00;101519.66;2063988;28;30829;-75
2022/09/11 01:08:37;;;;;;;94.35;43.15;;;;;;;12.03;100.00;101520.53;2073013;28;29522;-75
2022/09/11 01:09:39;;;;;;;170.43;43.47;;;;;;;12.01;100.00;101530.41;2079604;28;25189;-75
2022/09/11 01:11:24;;;;;;;109.78;43.92;;;;;;;11.97;100.00;101520.63;2071451;28;21543;-75
2022/09/11 01:12:37;;;;;;;126.95;35.15;;;;;;;11.94;100.00;101521.59;2072559;28;20042;-74
2022/09/11 01:14:04;;;;;;;137.55;40.42;;;;;;;11.92;100.00;101522.53;2071618;28;20909;-75
2022/09/11 01:15:39;;;;;;;183.57;41.03;;;;;;;11.89;100.00;101525.25;2072875;28;28563;-75
2022/09/11 01:17:36;;;;;;;124.28;40.47;;;;;;;11.84;100.00;101528.91;2066661;28;32661;-75
2022/09/11 01:19:16;;;;;;;76.10;38.33;;;;;;;11.85;100.00;101527.09;2079779;28;26944;-75
2022/09/11 01:20:43;;;;;;;102.07;42.13;;;;;;;11.89;100.00;101528.81;2071270;28;34190;-74
2022/09/11 01:22:16;;;;;;;81.53;41.35;;;;;;;11.94;100.00;101531.44;2062890;28;32430;-75
2022/09/11 01:23:45;;;;;;;80.80;42.15;;;;;;;11.82;100.00;101530.72;2072004;28;20143;-75
2022/09/11 01:25:07;;;;;;;84.95;40.75;;;;;;;11.78;100.00;101531.69;2071216;28;30938;-75
2022/09/11 01:26:31;;;;;;;112.00;44.08;;;;;;;11.77;100.00;101529.03;2066011;28;24607;-75
2022/09/11 01:27:53;;;;;;;140.82;40.35;;;;;;;11.74;100.00;101524.63;2070860;28;20054;-75
2022/09/11 01:29:17;;;;;;;119.25;41.50;;;;;;;11.72;100.00;101526.44;2071728;28;20181;-75
2022/09/11 01:30:23;;;;;;;142.77;40.05;;;;;;;11.70;100.00;101522.91;2074250;28;28931;-74
2022/09/11 01:31:33;;;;;;;281.02;45.50;;;;;;;11.74;100.00;101531.78;2068041;28;31082;-75
2022/09/11 01:33:05;;;;;;;310.83;42.03;;;;;;;11.70;100.00;101530.06;2064553;28;20093;-75
2022/09/11 01:34:21;;;;;;;106.00;41.25;;;;;;;11.67;100.00;101527.44;2069252;28;20984;-74
2022/09/11 01:35:47;;;;;;;315.02;42.15;;;;;;;11.63;100.00;101532.84;2060816;28;20039;-74
2022/09/11 01:36:58;;;;;;;103.43;41.25;;;;;;;11.62;100.00;101535.56;2071456;28;20176;-75
2022/09/11 01:38:30;;;;;;;78.60;34.80;;;;;;;11.57;100.00;101537.44;2071715;28;20284;-74
2022/09/11 01:39:40;;;;;;;78.75;37.88;;;;;;;11.53;100.00;101533.03;2076880;28;21514;-74
2022/09/11 01:40:57;;;;;;;81.50;37.97;;;;;;;11.52;100.00;101547.34;2075273;28;20140;-73
2022/09/11 01:42:06;;;;;;;82.32;38.15;;;;;;;11.48;100.00;101541.16;2081139;28;20038;-74
2022/09/11 01:43:15;;;;;;;87.07;43.22;;;;;;;11.53;100.00;101541.97;2079801;28;23232;-75
2022/09/11 01:44:26;;;;;;;89.05;40.90;;;;;;;11.51;100.00;101548.28;2073656;28;20046;-75
2022/09/11 01:45:30;;;;;;;108.68;43.97;;;;;;;11.48;100.00;101549.19;2070569;28;20114;-74
2022/09/11 01:46:40;;;;;;;90.63;40.63;;;;;;;11.44;100.00;101543.00;2065470;28;20066;-74
2022/09/11 01:47:46;;;;;;;87.95;41.92;;;;;;;11.45;100.00;101550.16;2073175;28;20046;-73
2022/09/11 01:49:05;;;;;;;70.43;37.15;;;;;;;11.41;100.00;101548.44;2081554;28;20918;-74
2022/09/11 01:50:13;;;;;;;77.95;39.05;;;;;;;11.39;100.00;101554.72;2078848;28;20045;-75
2022/09/11 01:51:24;;;;;;;79.93;38.22;;;;;;;11.36;100.00;101557.44;2079887;28;20179;-75
2022/09/11 01:52:40;;;;;;;78.47;40.75;;;;;;;11.35;100.00;101564.63;2062610;28;26536;-75
2022/09/11 01:53:48;;;;;;;71.28;35.78;;;;;;;11.30;100.00;101558.44;2068224;28;31910;-74
2022/09/11 01:55:01;;;;;;;78.22;39.25;;;;;;;11.31;100.00;101567.38;2073814;28;25783;-75
2022/09/11 01:56:12;;;;;;;67.47;35.10;;;;;;;11.27;100.00;101562.06;2082374;28;20814;-73
2022/09/11 01:57:41;;;;;;;70.47;37.28;;;;;;;11.27;100.00;101564.75;2068624;28;20648;-74
2022/09/11 01:58:45;;;;;;;64.05;34.55;;;;;;;11.25;100.00;101553.16;2067698;28;20054;-74
2022/09/11 01:59:54;;;;;;;54.80;31.48;;;;;;;11.22;100.00;101555.00;2071704;28;23669;-74
2022/09/11 02:01:26;;;;;;;67.68;39.45;;;;;;;11.18;100.00;101551.50;2076621;28;30145;-74
2022/09/11 02:02:35;;;;;;;53.08;31.50;;;;;;;11.14;100.00;101559.59;2079426;28;20038;-74
2022/09/11 02:03:46;;;;;;;58.03;34.38;;;;;;;11.10;100.00;101556.06;2072837;28;20088;-74
2022/09/11 02:05:14;;;;;;;51.13;30.67;;;;;;;11.07;100.00;101556.09;2064112;28;22141;-74
2022/09/11 02:06:33;;;;;;;53.75;33.33;;;;;;;11.03;100.00;101555.25;2066982;28;20054;-74
2022/09/11 02:07:45;;;;;;;46.38;30.38;;;;;;;10.99;100.00;101556.22;2075530;28;20915;-74
2022/09/11 02:09:07;;;;;;;47.35;30.90;;;;;;;10.96;100.00;101558.94;2079664;28;20050;-74
2022/09/11 02:10:18;;;;;;;48.88;29.20;;;;;;;10.98;100.00;101558.94;2074376;28;21016;-75
2022/09/11 02:11:20;;;;;;;59.42;35.50;;;;;;;10.99;100.00;101560.72;2073708;28;32355;-74
2022/09/11 02:12:33;;;;;;;60.70;33.80;;;;;;;11.02;100.00;101558.88;2071601;28;30095;-74
2022/09/11 02:14:04;;;;;;;59.50;34.97;;;;;;;11.07;100.00;101561.47;2064256;28;20054;-74
2022/09/11 02:15:12;;;;;;;58.17;33.45;;;;;;;11.06;100.00;101557.91;2073143;28;20045;-76
2022/09/11 02:16:34;;;;;;;61.92;35.50;;;;;;;11.11;100.00;101560.53;2064355;28;20058;-76
2022/09/11 02:17:47;;;;;;;54.05;31.35;;;;;;;11.11;100.00;101560.53;2061297;28;20277;-76
2022/09/11 02:19:11;;;;;;;58.28;34.63;;;;;;;11.14;100.00;101560.47;2068897;28;20030;-74
2022/09/11 02:20:14;;;;;;;60.03;34.22;;;;;;;11.17;100.00;101564.91;2074031;28;20075;-74
2022/09/11 02:21:16;;;;;;;59.75;35.08;;;;;;;11.18;100.00;101566.66;2071920;28;20042;-75
2022/09/11 02:22:19;;;;;;;57.72;34.13;;;;;;;11.18;100.00;101555.94;2079349;28;28429;-74
2022/09/11 02:23:21;;;;;;;48.70;31.08;;;;;;;11.18;100.00;101561.31;2080148;28;20876;-74
2022/09/11 02:24:27;;;;;;;48.35;30.67;;;;;;;11.16;100.00;101561.34;2079353;28;20171;-75
2022/09/11 02:25:28;;;;;;;42.67;29.48;;;;;;;11.10;100.00;101565.91;2071004;28;23607;-75
2022/09/11 02:26:38;;;;;;;40.08;27.33;;;;;;;11.02;100.00;101558.88;2063337;28;20166;-75
2022/09/11 02:27:41;;;;;;;39.03;27.55;;;;;;;10.96;100.00;101566.09;2055890;28;20055;-75
2022/09/11 02:28:43;;;;;;;43.53;29.20;;;;;;;10.91;100.00;101566.19;2056752;28;24269;-75
2022/09/11 02:29:46;;;;;;;38.30;25.92;;;;;;;10.88;100.00;101574.25;2071945;28;20125;-74
2022/09/11 02:30:50;;;;;;;37.92;26.92;;;;;;;10.83;100.00;101566.28;2063644;28;20047;-75
2022/09/11 02:31:53;;;;;;;42.47;30.67;;;;;;;10.84;100.00;101564.50;2064039;28;24858;-75
2022/09/11 02:32:55;;;;;;;56.20;32.95;;;;;;;10.84;100.00;101564.50;2071683;28;20113;-75
2022/09/11 02:33:56;;;;;;;49.20;31.63;;;;;;;10.86;100.00;101562.69;2070933;28;20062;-74
2022/09/11 02:34:59;;;;;;;47.95;30.88;;;;;;;10.90;100.00;101569.75;2071325;28;20168;-74
2022/09/11 02:36:31;;;;;;;52.28;32.38;;;;;;;10.87;100.00;101568.03;2071399;28;20046;-74
2022/09/11 02:38:17;;;;;;;46.55;29.83;;;;;;;10.85;100.00;101566.25;2080005;28;22806;-74
2022/09/11 02:39:43;;;;;;;43.22;27.67;;;;;;;10.84;100.00;101568.06;2070906;28;21070;-75
2022/09/11 02:41:03;;;;;;;47.78;29.42;;;;;;;10.82;100.00;101574.34;2077956;28;24707;-76
2022/09/11 02:42:39;;;;;;;49.50;29.88;;;;;;;10.84;100.00;101567.19;2079306;28;20045;-76
2022/09/11 02:44:11;;;;;;;56.67;33.15;;;;;;;10.88;100.00;101576.94;2080273;28;20033;-76
2022/09/11 02:45:31;;;;;;;60.17;34.22;;;;;;;10.93;100.00;101580.44;2079435;28;20046;-76
2022/09/11 02:47:03;;;;;;;63.83;34.70;;;;;;;10.98;100.00;101583.94;2073590;28;20863;-76
2022/09/11 02:48:38;;;;;;;57.35;34.15;;;;;;;11.02;100.00;101580.31;2083223;28;20934;-76
2022/09/11 02:50:01;;;;;;;58.20;33.45;;;;;;;10.97;100.00;101584.84;2076719;28;20164;-76
2022/09/11 02:51:50;;;;;;;52.30;32.38;;;;;;;10.95;100.00;101583.13;2060327;28;20895;-74
2022/09/11 02:53:26;;;;;;;56.13;34.25;;;;;;;11.05;100.00;101582.94;2077761;28;20808;-74
2022/09/11 02:55:06;;;;;;;58.63;32.30;;;;;;;10.98;100.00;101586.63;2075869;28;20093;-75
2022/09/11 02:56:22;;;;;;;46.45;27.55;;;;;;;10.95;100.00;101592.03;2076295;28;23681;-74
2022/09/11 02:57:38;;;;;;;44.25;26.42;;;;;;;10.93;100.00;101585.81;2076361;28;20107;-74
2022/09/11 02:59:07;;;;;;;51.20;30.35;;;;;;;10.89;100.00;101592.09;2073701;28;20041;-74
2022/09/11 03:00:10;;;;;;;44.78;28.25;;;;;;;10.84;100.00;101594.84;2076385;28;20131;-74
2022/09/11 03:01:12;;;;;;;46.63;30.60;;;;;;;10.85;100.00;101588.56;2061764;28;20039;-75
2022/09/11 03:02:17;;;;;;;47.55;30.77;;;;;;;10.83;100.00;101597.53;2055988;28;20047;-75
2022/09/11 03:03:22;;;;;;;51.20;32.03;;;;;;;10.78;100.00;101583.31;2063849;28;20785;-75
2022/09/11 03:04:25;;;;;;;46.50;28.85;;;;;;;10.77;100.00;101586.94;2065135;28;20042;-74
2022/09/11 03:05:29;;;;;;;44.83;29.38;;;;;;;10.74;100.00;101586.97;2063419;28;20042;-74
2022/09/11 03:06:33;;;;;;;45.53;31.40;;;;;;;10.72;100.00;101588.78;2063325;28;20038;-74
2022/09/11 03:07:36;;;;;;;35.83;25.42;;;;;;;10.71;100.00;101582.50;2071054;28;24649;-74
2022/09/11 03:08:39;;;;;;;37.95;26.85;;;;;;;10.65;100.00;101583.47;2079075;28;22896;-74
2022/09/11 03:09:42;;;;;;;40.03;27.55;;;;;;;10.61;100.00;101586.25;2070419;28;20042;-74
2022/09/11 03:10:50;;;;;;;39.38;27.15;;;;;;;10.56;100.00;101583.59;2071827;28;20121;-75
2022/09/11 03:11:51;;;;;;;35.30;26.88;;;;;;;10.53;100.00;101591.66;2078872;28;36972;-75
2022/09/11 03:12:54;;;;;;;42.78;29.40;;;;;;;10.47;100.00;101583.72;2079037;28;20875;-74
2022/09/11 03:13:57;;;;;;;40.03;25.48;;;;;;;10.45;100.00;101589.09;2079219;28;20137;-74
2022/09/11 03:15:01;;;;;;;31.70;22.67;;;;;;;10.44;100.00;101587.31;2079264;28;20030;-74
2022/09/11 03:16:04;;;;;;;36.80;25.63;;;;;;;10.43;100.00;101582.88;2079579;28;20050;-75
2022/09/11 03:17:06;;;;;;;45.80;30.27;;;;;;;10.52;100.00;101581.00;2078780;28;21032;-75
2022/09/11 03:18:13;;;;;;;45.22;28.60;;;;;;;10.44;100.00;101586.44;2071388;28;20888;-74
2022/09/11 03:19:15;;;;;;;36.50;24.45;;;;;;;10.41;100.00;101584.69;2079127;28;20266;-74
2022/09/11 03:20:19;;;;;;;33.97;23.23;;;;;;;10.37;100.00;101590.97;2063084;28;20050;-75
2022/09/11 03:21:21;;;;;;;32.70;23.05;;;;;;;10.32;100.00;101588.34;2071719;28;20179;-75
2022/09/11 03:22:23;;;;;;;29.80;22.15;;;;;;;10.28;100.00;101583.91;2078866;28;20804;-74
2022/09/11 03:23:29;;;;;;;40.72;26.55;;;;;;;10.29;100.00;101584.78;2071939;28;20155;-75
2022/09/11 03:24:30;;;;;;;47.72;28.67;;;;;;;10.38;100.00;101584.72;2079268;28;20680;-74
2022/09/11 03:25:34;;;;;;;46.30;30.42;;;;;;;10.38;100.00;101584.72;2071598;28;20051;-75
2022/09/11 03:26:37;;;;;;;50.03;30.92;;;;;;;10.38;100.00;101575.81;2071172;28;20875;-74
2022/09/11 03:27:40;;;;;;;42.92;27.75;;;;;;;10.38;100.00;101578.47;2078677;28;21034;-75
2022/09/11 03:28:46;;;;;;;42.50;28.67;;;;;;;10.34;100.00;101583.00;2079099;28;20171;-75
2022/09/11 03:29:51;;;;;;;43.35;28.05;;;;;;;10.38;100.00;101581.16;2063041;28;20169;-74
2022/09/11 03:30:53;;;;;;;42.00;27.83;;;;;;;10.31;100.00;101589.25;2064132;28;20043;-74
2022/09/11 03:32:01;;;;;;;45.85;29.33;;;;;;;10.27;100.00;101594.63;2079351;28;20050;-74
2022/09/11 03:33:05;;;;;;;44.30;28.35;;;;;;;10.24;100.00;101595.53;2079208;28;20050;-75
2022/09/11 03:34:07;;;;;;;31.58;22.42;;;;;;;10.24;100.00;101602.69;2079185;28;20037;-74
2022/09/11 03:35:10;;;;;;;33.83;24.33;;;;;;;10.19;100.00;101604.53;2079087;28;20808;-74
2022/09/11 03:36:12;;;;;;;32.30;22.58;;;;;;;10.15;100.00;101601.00;2070050;28;20047;-75
2022/09/11 03:37:15;;;;;;;32.80;23.23;;;;;;;10.11;100.00;101596.59;2078331;28;20124;-74
2022/09/11 03:38:16;;;;;;;38.65;26.80;;;;;;;10.10;100.00;101605.50;2075079;28;20894;-75
2022/09/11 03:39:18;;;;;;;34.20;23.77;;;;;;;10.08;100.00;101604.63;2078628;28;20050;-75
2022/09/11 03:40:21;;;;;;;31.33;23.17;;;;;;;10.03;100.00;101604.69;2070523;28;34502;-75
2022/09/11 03:41:23;;;;;;;33.22;24.52;;;;;;;10.01;100.00;101610.94;2070968;28;20100;-74
2022/09/11 03:42:26;;;;;;;30.55;22.08;;;;;;;9.98;100.00;101602.94;2062658;28;20145;-74
2022/09/11 03:43:29;;;;;;;32.13;23.45;;;;;;;9.94;100.00;101604.75;2071156;28;20909;-74
2022/09/11 03:44:31;;;;;;;33.88;24.85;;;;;;;9.92;100.00;101596.78;2079006;28;20053;-74
2022/09/11 03:45:33;;;;;;;31.13;21.98;;;;;;;9.92;100.00;101603.91;2062868;28;20054;-75
2022/09/11 03:46:37;;;;;;;35.72;25.15;;;;;;;9.89;100.00;101602.16;2071008;28;20838;-75
2022/09/11 03:47:39;;;;;;;39.78;27.48;;;;;;;9.91;100.00;101615.50;2070931;28;20160;-75
2022/09/11 03:48:41;;;;;;;38.85;25.15;;;;;;;9.92;100.00;101618.19;2062837;28;20165;-75
2022/09/11 03:49:45;;;;;;;40.53;26.35;;;;;;;9.94;100.00;101612.78;2071060;28;20050;-75
2022/09/11 03:50:47;;;;;;;45.78;28.85;;;;;;;9.94;100.00;101608.34;2070862;28;20871;-74
2022/09/11 03:51:49;;;;;;;36.58;23.52;;;;;;;9.97;100.00;101609.22;2054545;28;20066;-75
2022/09/11 03:52:52;;;;;;;49.08;29.25;;;;;;;10.00;100.00;101614.53;2055198;28;20047;-74
2022/09/11 03:53:58;;;;;;;43.85;25.52;;;;;;;9.99;100.00;101612.75;2063013;28;20130;-74
2022/09/11 03:55:03;;;;;;;42.47;26.88;;;;;;;9.97;100.00;101619.91;2071413;28;20222;-74
2022/09/11 03:56:05;;;;;;;47.17;29.60;;;;;;;9.99;100.00;101610.06;2070981;28;20923;-74
2022/09/11 03:57:13;;;;;;;39.45;25.13;;;;;;;9.99;100.00;101615.44;2071871;28;20979;-74
2022/09/11 03:58:20;;;;;;;43.95;26.67;;;;;;;9.98;100.00;101610.97;2078599;28;20878;-74
2022/09/11 03:59:22;;;;;;;53.20;31.38;;;;;;;10.01;100.00;101617.19;2062658;28;29250;-75
2022/09/11 04:00:25;;;;;;;41.65;26.15;;;;;;;9.99;100.00;101616.31;2071230;28;20726;-74
2022/09/11 04:01:32;;;;;;;37.25;25.45;;;;;;;9.96;100.00;101612.78;2079746;28;20034;-73
2022/09/11 04:02:33;;;;;;;44.42;28.77;;;;;;;9.93;100.00;101617.25;2064426;28;20050;-74
2022/09/11 04:03:35;;;;;;;40.80;27.60;;;;;;;9.89;100.00;101620.88;2072284;28;20050;-74
2022/09/11 04:04:37;;;;;;;46.17;29.42;;;;;;;9.91;100.00;101613.72;2080482;28;20382;-75
2022/09/11 04:05:40;;;;;;;46.20;27.00;;;;;;;9.91;100.00;101620.88;2064228;28;20875;-74
2022/09/11 04:06:42;;;;;;;48.80;28.52;;;;;;;9.94;100.00;101616.38;2064414;28;23068;-75
2022/09/11 04:07:44;;;;;;;46.45;28.75;;;;;;;9.96;100.00;101612.78;2067200;28;20039;-74
2022/09/11 04:08:46;;;;;;;49.85;30.38;;;;;;;9.99;100.00;101616.31;2072000;28;21862;-74
2022/09/11 04:09:48;;;;;;;45.53;26.90;;;;;;;10.00;100.00;101619.91;2072370;28;20069;-75
2022/09/11 04:10:58;;;;;;;43.80;26.58;;;;;;;10.05;100.00;101623.38;2072507;28;25499;-75
2022/09/11 04:12:01;;;;;;;44.83;26.73;;;;;;;10.02;100.00;101626.13;2063929;28;20094;-75
2022/09/11 04:13:06;;;;;;;53.97;29.67;;;;;;;10.07;100.00;101626.97;2064582;28;20141;-75
2022/09/11 04:14:08;;;;;;;59.83;30.35;;;;;;;10.11;100.00;101626.00;2072816;28;20083;-75
2022/09/11 04:15:12;;;;;;;51.60;26.98;;;;;;;10.18;100.00;101630.41;2071775;28;20174;-74
2022/09/11 04:16:17;;;;;;;54.67;29.50;;;;;;;10.21;100.00;101630.38;2064788;28;20046;-75
2022/09/11 04:17:23;;;;;;;63.13;29.55;;;;;;;10.22;100.00;101631.25;2080205;28;20053;-74
2022/09/11 04:18:29;;;;;;;46.15;28.45;;;;;;;10.20;100.00;101622.38;2071816;28;20046;-74
2022/09/11 04:19:33;;;;;;;51.63;26.05;;;;;;;10.21;100.00;101630.38;2063695;28;24663;-74
2022/09/11 04:20:38;;;;;;;51.88;29.08;;;;;;;10.21;100.00;101630.38;2064524;28;20812;-74
2022/09/11 04:21:41;;;;;;;37.67;21.63;;;;;;;10.19;100.00;101636.63;2072513;28;20081;-75
2022/09/11 04:22:43;;;;;;;58.88;23.77;;;;;;;10.18;100.00;101637.56;2080141;28;20053;-74
2022/09/11 04:23:55;;;;;;;41.38;21.70;;;;;;;10.15;100.00;101630.44;2080264;28;20934;-74
2022/09/11 04:24:59;;;;;;;57.92;23.63;;;;;;;10.11;100.00;101628.69;2080334;28;20826;-75
2022/09/11 04:26:11;;;;;;;51.38;24.48;;;;;;;10.10;100.00;101627.81;2071833;28;20155;-74
2022/09/11 04:27:12;;;;;;;50.50;27.95;;;;;;;10.13;100.00;101627.75;2073326;28;20050;-74
2022/09/11 04:28:14;;;;;;;51.70;24.95;;;;;;;10.12;100.00;101633.13;2072174;28;20043;-74
2022/09/11 04:29:16;;;;;;;51.00;24.02;;;;;;;10.13;100.00;101632.22;2056205;28;20098;-75
2022/09/11 04:30:21;;;;;;;54.15;23.27;;;;;;;10.11;100.00;101629.56;2064363;28;20031;-74
2022/09/11 04:31:26;;;;;;;51.92;24.23;;;;;;;10.11;100.00;101631.38;2072028;28;20184;-74
2022/09/11 04:32:28;;;;;;;62.17;26.33;;;;;;;10.16;100.00;101636.66;2072632;28;20077;-75
2022/09/11 04:33:30;;;;;;;45.22;23.75;;;;;;;10.17;100.00;101633.09;2072388;28;20054;-75
2022/09/11 04:34:32;;;;;;;57.30;24.15;;;;;;;10.17;100.00;101633.97;2071961;28;20046;-74
2022/09/11 04:35:39;;;;;;;57.33;22.85;;;;;;;10.18;100.00;101643.78;2072555;28;20042;-75
2022/09/11 04:36:41;;;;;;;62.63;28.15;;;;;;;10.25;100.00;101645.50;2072747;28;21091;-75
2022/09/11 04:37:49;;;;;;;64.30;26.67;;;;;;;10.28;100.00;101641.88;2075207;28;20046;-74
2022/09/11 04:38:57;;;;;;;67.85;27.75;;;;;;;10.32;100.00;101647.25;2080146;28;20038;-76
2022/09/11 04:39:59;;;;;;;70.28;27.88;;;;;;;10.40;100.00;101646.28;2072110;28;20902;-74
2022/09/11 04:41:03;;;;;;;49.53;28.48;;;;;;;10.44;100.00;101645.31;2064016;28;20089;-74
2022/09/11 04:42:05;;;;;;;58.58;27.38;;;;;;;10.47;100.00;101650.66;2072088;28;20200;-73
2022/09/11 04:43:10;;;;;;;51.00;29.33;;;;;;;10.52;100.00;101650.63;2063810;28;20090;-74
2022/09/11 04:44:13;;;;;;;51.17;28.80;;;;;;;10.56;100.00;101652.34;2056480;28;20531;-74
2022/09/11 04:45:17;;;;;;;52.78;25.15;;;;;;;10.57;100.00;101651.41;2064273;28;20043;-73
2022/09/11 04:46:19;;;;;;;71.25;28.55;;;;;;;10.59;100.00;101638.94;2072009;28;20812;-72
2022/09/11 04:47:21;;;;;;;46.53;25.90;;;;;;;10.60;100.00;101649.59;2071658;28;20043;-73
2022/09/11 04:48:23;;;;;;;49.33;28.02;;;;;;;10.61;100.00;101645.16;2071945;28;20054;-73
2022/09/11 04:49:25;;;;;;;44.20;26.80;;;;;;;10.63;100.00;101648.69;2071859;28;20065;-73
2022/09/11 04:50:28;;;;;;;48.50;24.77;;;;;;;10.66;100.00;101652.22;2071792;28;20030;-73
2022/09/11 04:51:48;;;;;;;44.03;27.08;;;;;;;10.73;100.00;101654.81;2066543;28;21145;-74
2022/09/11 04:52:54;;;;;;;45.70;28.38;;;;;;;10.77;100.00;101651.22;2064198;28;20158;-73
2022/09/11 04:53:58;;;;;;;40.05;24.65;;;;;;;10.76;100.00;101647.63;2078815;28;20049;-73
2022/09/11 04:55:06;;;;;;;48.40;27.63;;;;;;;10.79;100.00;101644.03;2081388;28;20157;-73
2022/09/11 04:56:13;;;;;;;46.83;28.35;;;;;;;10.80;100.00;101649.38;2079984;28;29531;-74
2022/09/11 04:57:20;;;;;;;46.40;28.02;;;;;;;10.84;100.00;101640.38;2089628;28;20085;-73
2022/09/11 04:58:21;;;;;;;49.88;28.83;;;;;;;10.88;100.00;101650.16;2088117;28;20168;-73
2022/09/11 04:59:25;;;;;;;53.47;30.35;;;;;;;10.90;100.00;101644.78;2078844;28;20173;-73
2022/09/11 05:00:38;;;;;;;50.05;28.42;;;;;;;10.92;100.00;101644.75;2080248;28;20093;-74
2022/09/11 05:01:42;;;;;;;45.33;26.20;;;;;;;10.93;100.00;101642.06;2078393;28;20042;-73
2022/09/11 05:02:46;;;;;;;40.45;24.08;;;;;;;10.95;100.00;101647.41;2085270;28;20144;-74
2022/09/11 05:03:51;;;;;;;49.22;25.65;;;;;;;10.96;100.00;101642.00;2070792;28;20046;-73
2022/09/11 05:04:53;;;;;;;45.08;26.10;;;;;;;10.97;100.00;101651.84;2064545;28;20039;-74
2022/09/11 05:05:55;;;;;;;50.45;24.80;;;;;;;10.97;100.00;101642.91;2074082;28;20123;-73
2022/09/11 05:06:57;;;;;;;42.97;24.00;;;;;;;10.95;100.00;101645.63;2079938;28;21202;-74